createdAt,value
2017-10-26T00:00:23.038Z,75.78
2017-10-26T00:01:29.872Z,75.85
2017-10-26T00:02:36.652Z,75.89
2017-10-26T00:03:43.466Z,75.98
2017-10-26T00:04:50.282Z,76.10
2017-10-26T00:05:57.093Z,76.21
2017-10-26T00:07:03.932Z,76.30
2017-10-26T00:08:10.717Z,76.38
2017-10-26T00:09:17.534Z,76.46
2017-10-26T00:10:24.416Z,76.56
2017-10-26T00:11:31.229Z,76.66
2017-10-26T00:12:37.993Z,76.74
2017-10-26T00:13:44.773Z,76.87
2017-10-26T00:14:51.568Z,76.96
2017-10-26T00:15:58.346Z,77.07
2017-10-26T00:17:05.137Z,77.17
2017-10-26T00:18:12.001Z,77.25
2017-10-26T00:19:18.892Z,77.40
2017-10-26T00:20:25.776Z,77.47
2017-10-26T00:21:32.629Z,77.47
2017-10-26T00:22:39.421Z,77.62
2017-10-26T00:23:46.481Z,77.73
2017-10-26T00:24:53.297Z,77.86
2017-10-26T00:26:00.172Z,77.94
2017-10-26T00:27:06.948Z,78.04
2017-10-26T00:28:13.721Z,78.16
2017-10-26T00:29:20.529Z,78.20
2017-10-26T00:30:27.358Z,78.28
2017-10-26T00:31:34.264Z,78.35
2017-10-26T00:32:41.061Z,78.40
2017-10-26T00:33:47.849Z,78.44
2017-10-26T00:34:54.642Z,78.54
2017-10-26T00:36:01.450Z,78.64
2017-10-26T00:37:08.233Z,78.77
2017-10-26T00:38:15.013Z,78.88
2017-10-26T00:39:21.819Z,78.95
2017-10-26T00:40:28.626Z,79.00
2017-10-26T00:41:35.409Z,79.04
2017-10-26T00:42:42.200Z,79.17
2017-10-26T00:43:48.958Z,79.29
2017-10-26T00:44:55.767Z,79.35
2017-10-26T00:46:02.576Z,79.51
2017-10-26T00:47:09.372Z,79.63
2017-10-26T00:48:16.145Z,79.67
2017-10-26T00:49:23.381Z,79.72
2017-10-26T00:50:29.692Z,79.76
2017-10-26T00:51:36.513Z,79.82
2017-10-26T00:52:43.289Z,79.87
2017-10-26T00:53:50.068Z,79.96
2017-10-26T00:54:56.900Z,80.05
2017-10-26T00:56:03.681Z,80.15
2017-10-26T00:57:10.570Z,80.22
2017-10-26T00:58:17.377Z,80.32
2017-10-26T00:59:24.274Z,80.39
2017-10-26T01:00:31.117Z,80.43
2017-10-26T01:01:37.987Z,80.57
2017-10-26T01:02:44.846Z,80.65
2017-10-26T01:03:51.729Z,80.74
2017-10-26T01:04:58.757Z,80.81
2017-10-26T01:06:05.578Z,80.88
2017-10-26T01:07:12.379Z,80.89
2017-10-26T01:08:19.210Z,80.95
2017-10-26T01:09:26.086Z,81.02
2017-10-26T01:10:32.875Z,81.13
2017-10-26T01:11:39.702Z,81.20
2017-10-26T01:12:46.506Z,81.26
2017-10-26T01:13:53.298Z,81.30
2017-10-26T01:15:00.094Z,81.39
2017-10-26T01:16:06.938Z,81.45
2017-10-26T01:17:13.904Z,81.51
2017-10-26T01:18:20.771Z,81.54
2017-10-26T01:19:27.887Z,81.59
2017-10-26T01:20:34.674Z,81.70
2017-10-26T01:21:41.572Z,81.76
2017-10-26T01:22:48.437Z,81.87
2017-10-26T01:23:55.265Z,81.99
2017-10-26T01:25:02.158Z,82.06
2017-10-26T01:26:09.133Z,82.14
2017-10-26T01:27:15.941Z,82.22
2017-10-26T01:28:22.773Z,82.27
2017-10-26T01:29:29.681Z,82.37
2017-10-26T01:30:36.522Z,82.44
2017-10-26T01:31:43.373Z,82.43
2017-10-26T01:32:50.274Z,82.50
2017-10-26T01:33:57.065Z,82.57
2017-10-26T01:35:04.425Z,82.62
2017-10-26T01:36:10.818Z,82.69
2017-10-26T01:37:17.796Z,82.75
2017-10-26T01:38:24.589Z,82.86
2017-10-26T01:39:31.441Z,82.91
2017-10-26T01:40:38.250Z,82.98
2017-10-26T01:41:45.132Z,83.04
2017-10-26T01:42:51.985Z,83.06
2017-10-26T01:43:59.362Z,83.13
2017-10-26T01:45:05.708Z,83.15
2017-10-26T01:46:12.599Z,83.20
2017-10-26T01:47:19.484Z,83.22
2017-10-26T01:48:26.366Z,83.26
2017-10-26T01:49:33.206Z,83.32
2017-10-26T01:50:40.006Z,83.38
2017-10-26T01:51:46.967Z,83.48
2017-10-26T01:52:53.815Z,83.57
2017-10-26T01:54:00.713Z,83.69
2017-10-26T01:55:07.538Z,83.74
2017-10-26T01:56:14.465Z,83.85
2017-10-26T01:57:21.304Z,83.94
2017-10-26T01:58:28.229Z,84.06
2017-10-26T01:59:35.114Z,84.10
2017-10-26T02:00:41.945Z,84.14
2017-10-26T02:01:48.799Z,84.18
2017-10-26T02:02:55.702Z,84.25
2017-10-26T02:04:02.536Z,84.27
2017-10-26T02:05:09.534Z,84.32
2017-10-26T02:06:16.394Z,84.42
2017-10-26T02:07:23.430Z,84.50
2017-10-26T02:08:30.365Z,84.56
2017-10-26T02:09:37.218Z,84.61
2017-10-26T02:10:44.108Z,84.66
2017-10-26T02:11:51.042Z,84.70
2017-10-26T02:12:57.897Z,84.73
2017-10-26T02:14:04.753Z,84.73
2017-10-26T02:15:11.598Z,84.76
2017-10-26T02:16:18.833Z,84.80
2017-10-26T02:17:25.174Z,84.81
2017-10-26T02:18:32.038Z,84.84
2017-10-26T02:19:38.857Z,84.86
2017-10-26T02:20:45.755Z,84.84
2017-10-26T02:21:52.616Z,84.87
2017-10-26T02:22:59.559Z,84.92
2017-10-26T02:24:06.657Z,84.95
2017-10-26T02:25:13.549Z,84.97
2017-10-26T02:26:20.394Z,84.99
2017-10-26T02:27:27.390Z,84.96
2017-10-26T02:28:34.192Z,84.99
2017-10-26T02:29:41.132Z,84.99
2017-10-26T02:31:51.875Z,85.01
2017-10-26T02:32:58.690Z,85.11
2017-10-26T02:34:05.518Z,85.14
2017-10-26T02:35:12.460Z,85.20
2017-10-26T02:36:19.330Z,85.22
2017-10-26T02:37:26.388Z,85.25
2017-10-26T02:38:33.301Z,85.23
2017-10-26T02:39:40.233Z,85.28
2017-10-26T02:40:47.146Z,85.33
2017-10-26T02:41:54.077Z,85.37
2017-10-26T02:43:00.927Z,85.42
2017-10-26T02:44:07.812Z,85.41
2017-10-26T02:45:14.626Z,85.39
2017-10-26T02:46:21.494Z,85.38
2017-10-26T02:47:28.673Z,85.39
2017-10-26T02:48:35.518Z,85.36
2017-10-26T02:49:42.386Z,85.42
2017-10-26T02:50:49.262Z,85.38
2017-10-26T02:51:56.166Z,85.39
2017-10-26T02:53:03.024Z,85.41
2017-10-26T02:54:09.862Z,85.41
2017-10-26T02:55:16.829Z,85.41
2017-10-26T02:56:23.709Z,85.41
2017-10-26T02:57:30.589Z,85.39
2017-10-26T02:58:37.714Z,85.36
2017-10-26T02:59:44.612Z,85.33
2017-10-26T03:00:51.474Z,85.33
2017-10-26T03:01:58.434Z,85.34
2017-10-26T03:03:05.289Z,85.34
2017-10-26T03:04:12.137Z,85.35
2017-10-26T03:05:18.964Z,85.35
2017-10-26T03:06:25.813Z,85.33
2017-10-26T03:07:32.688Z,85.33
2017-10-26T03:08:39.535Z,85.32
2017-10-26T03:09:46.406Z,85.30
2017-10-26T03:10:53.319Z,85.29
2017-10-26T03:12:00.235Z,85.26
2017-10-26T03:13:07.089Z,85.29
2017-10-26T03:14:13.923Z,85.27
2017-10-26T03:15:20.793Z,85.27
2017-10-26T03:16:27.685Z,85.25
2017-10-26T03:17:34.554Z,85.26
2017-10-26T03:18:41.381Z,85.25
2017-10-26T03:19:48.232Z,85.24
2017-10-26T03:20:55.077Z,85.24
2017-10-26T03:22:01.907Z,85.24
2017-10-26T03:23:08.832Z,85.22
2017-10-26T03:24:15.711Z,85.22
2017-10-26T03:25:22.581Z,85.24
2017-10-26T03:26:29.426Z,85.21
2017-10-26T03:27:36.314Z,85.15
2017-10-26T03:28:43.279Z,85.13
2017-10-26T03:29:50.126Z,85.13
2017-10-26T03:30:56.978Z,85.11
2017-10-26T03:32:03.830Z,85.12
2017-10-26T03:33:10.682Z,85.09
2017-10-26T03:34:17.514Z,85.08
2017-10-26T03:35:24.382Z,85.09
2017-10-26T03:36:31.253Z,85.08
2017-10-26T03:37:38.107Z,85.08
2017-10-26T03:38:44.945Z,85.10
2017-10-26T03:39:51.813Z,85.07
2017-10-26T03:40:58.794Z,85.02
2017-10-26T03:42:05.662Z,85.04
2017-10-26T03:43:12.602Z,85.00
2017-10-26T03:44:19.440Z,85.00
2017-10-26T03:45:26.294Z,84.95
2017-10-26T03:46:33.161Z,84.93
2017-10-26T03:47:40.002Z,84.92
2017-10-26T03:48:46.919Z,84.87
2017-10-26T03:49:53.798Z,84.89
2017-10-26T03:51:00.938Z,84.87
2017-10-26T03:52:07.284Z,84.87
2017-10-26T03:53:14.238Z,84.89
2017-10-26T03:54:21.061Z,84.83
2017-10-26T03:55:27.999Z,84.79
2017-10-26T03:56:34.861Z,84.80
2017-10-26T03:57:41.666Z,84.80
2017-10-26T03:58:48.633Z,84.83
2017-10-26T03:59:55.477Z,84.83
2017-10-26T04:01:02.430Z,84.82
2017-10-26T04:02:09.294Z,84.80
2017-10-26T04:03:16.237Z,84.78
2017-10-26T04:04:23.100Z,84.75
2017-10-26T04:05:29.981Z,84.76
2017-10-26T04:06:36.848Z,84.74
2017-10-26T04:07:43.721Z,84.70
2017-10-26T04:08:50.600Z,84.69
2017-10-26T04:09:57.453Z,84.65
2017-10-26T04:11:04.389Z,84.65
2017-10-26T04:12:11.249Z,84.62
2017-10-26T04:13:18.146Z,84.62
2017-10-26T04:14:24.979Z,84.60
2017-10-26T04:15:31.850Z,84.59
2017-10-26T04:16:38.782Z,84.56
2017-10-26T04:17:45.966Z,84.53
2017-10-26T04:18:52.867Z,84.51
2017-10-26T04:19:59.827Z,84.52
2017-10-26T04:21:06.667Z,84.52
2017-10-26T04:22:13.689Z,84.48
2017-10-26T04:23:20.662Z,84.50
2017-10-26T04:24:27.575Z,84.48
2017-10-26T04:25:34.698Z,84.47
2017-10-26T04:26:41.643Z,84.44
2017-10-26T04:27:48.537Z,84.41
2017-10-26T04:28:55.435Z,84.37
2017-10-26T04:30:02.348Z,84.34
2017-10-26T04:31:09.272Z,84.33
2017-10-26T04:32:16.393Z,84.32
2017-10-26T04:33:23.335Z,84.32
2017-10-26T04:34:30.329Z,84.30
2017-10-26T04:35:37.205Z,84.29
2017-10-26T04:36:44.094Z,84.25
2017-10-26T04:37:51.097Z,84.22
2017-10-26T04:38:57.962Z,84.20
2017-10-26T04:40:04.806Z,84.21
2017-10-26T04:41:11.811Z,84.21
2017-10-26T04:42:18.682Z,84.19
2017-10-26T04:43:25.553Z,84.19
2017-10-26T04:44:32.649Z,84.14
2017-10-26T04:45:39.481Z,84.12
2017-10-26T04:46:46.402Z,84.08
2017-10-26T04:47:53.535Z,84.02
2017-10-26T04:48:59.917Z,83.97
2017-10-26T04:50:06.798Z,83.97
2017-10-26T04:51:13.646Z,83.94
2017-10-26T04:52:20.502Z,83.93
2017-10-26T04:53:27.350Z,83.94
2017-10-26T04:54:34.247Z,83.96
2017-10-26T04:55:41.135Z,83.96
2017-10-26T04:56:47.981Z,83.92
2017-10-26T04:57:54.829Z,83.93
2017-10-26T04:59:01.663Z,83.89
2017-10-26T05:00:08.500Z,83.87
2017-10-26T05:01:15.353Z,83.88
2017-10-26T05:02:22.191Z,83.91
2017-10-26T05:03:29.029Z,83.87
2017-10-26T05:04:35.896Z,83.87
2017-10-26T05:05:42.758Z,83.84
2017-10-26T05:06:49.618Z,83.81
2017-10-26T05:07:56.454Z,83.81
2017-10-26T05:09:03.317Z,83.80
2017-10-26T05:10:10.221Z,83.76
2017-10-26T05:11:17.054Z,83.76
2017-10-26T05:12:23.889Z,83.75
2017-10-26T05:13:30.750Z,83.73
2017-10-26T05:14:37.586Z,83.71
2017-10-26T05:15:44.610Z,83.71
2017-10-26T05:16:51.594Z,83.72
2017-10-26T05:17:58.470Z,83.71
2017-10-26T05:19:05.390Z,83.69
2017-10-26T05:20:12.247Z,83.68
2017-10-26T05:21:19.098Z,83.71
2017-10-26T05:22:25.980Z,83.70
2017-10-26T05:23:33.116Z,83.71
2017-10-26T05:24:39.737Z,83.69
2017-10-26T05:25:46.641Z,83.66
2017-10-26T05:26:53.518Z,83.65
2017-10-26T05:28:00.395Z,83.63
2017-10-26T05:29:07.635Z,83.55
2017-10-26T05:30:14.149Z,83.53
2017-10-26T05:31:21.128Z,83.51
2017-10-26T05:32:27.997Z,83.50
2017-10-26T05:33:34.958Z,83.49
2017-10-26T05:34:42.046Z,83.46
2017-10-26T05:35:48.922Z,83.46
2017-10-26T05:36:56.197Z,83.47
2017-10-26T05:38:03.045Z,83.48
2017-10-26T05:39:10.102Z,83.46
2017-10-26T05:40:17.002Z,83.45
2017-10-26T05:41:23.901Z,83.42
2017-10-26T05:42:30.793Z,83.42
2017-10-26T05:43:37.746Z,83.43
2017-10-26T05:44:44.578Z,83.48
2017-10-26T05:45:51.510Z,83.48
2017-10-26T05:46:58.522Z,83.45
2017-10-26T05:48:05.377Z,83.42
2017-10-26T05:49:12.286Z,83.42
2017-10-26T05:50:23.297Z,83.42
2017-10-26T05:51:26.011Z,83.42
2017-10-26T05:52:33.152Z,83.40
2017-10-26T05:53:39.859Z,83.40
2017-10-26T05:54:46.730Z,83.38
2017-10-26T05:55:53.624Z,83.37
2017-10-26T05:57:00.458Z,83.33
2017-10-26T05:58:07.324Z,83.34
2017-10-26T05:59:14.207Z,83.33
2017-10-26T06:00:21.062Z,83.33
2017-10-26T06:01:27.902Z,83.32
2017-10-26T06:02:34.782Z,83.29
2017-10-26T06:03:41.646Z,83.29
2017-10-26T06:04:48.489Z,83.27
2017-10-26T06:05:55.497Z,83.29
2017-10-26T06:07:02.400Z,83.29
2017-10-26T06:08:09.278Z,83.27
2017-10-26T06:09:16.153Z,83.25
2017-10-26T06:10:22.957Z,83.25
2017-10-26T06:11:30.134Z,83.22
2017-10-26T06:12:36.988Z,83.22
2017-10-26T06:13:43.898Z,83.22
2017-10-26T06:14:50.767Z,83.23
2017-10-26T06:15:57.608Z,83.22
2017-10-26T06:17:04.467Z,83.24
2017-10-26T06:18:11.323Z,83.22
2017-10-26T06:19:18.199Z,83.21
2017-10-26T06:20:25.458Z,83.20
2017-10-26T06:21:31.834Z,83.25
2017-10-26T06:22:38.706Z,83.21
2017-10-26T06:23:45.570Z,83.21
2017-10-26T06:24:52.392Z,83.19
2017-10-26T06:25:59.216Z,83.21
2017-10-26T06:27:06.068Z,83.23
2017-10-26T06:28:12.950Z,83.23
2017-10-26T06:29:19.821Z,83.24
2017-10-26T06:30:26.667Z,83.20
2017-10-26T06:31:33.502Z,83.16
2017-10-26T06:32:40.498Z,83.16
2017-10-26T06:33:47.392Z,83.08
2017-10-26T06:34:54.398Z,83.09
2017-10-26T06:36:01.305Z,83.06
2017-10-26T06:37:08.161Z,83.03
2017-10-26T06:38:15.039Z,83.00
2017-10-26T06:39:21.890Z,82.99
2017-10-26T06:40:28.729Z,82.97
2017-10-26T06:41:35.582Z,82.99
2017-10-26T06:42:42.428Z,82.97
2017-10-26T06:43:49.305Z,83.00
2017-10-26T06:44:56.148Z,82.97
2017-10-26T06:46:02.963Z,82.99
2017-10-26T06:47:09.829Z,82.99
2017-10-26T06:48:16.678Z,83.01
2017-10-26T06:49:23.600Z,82.98
2017-10-26T06:50:30.538Z,82.99
2017-10-26T06:51:37.493Z,83.03
2017-10-26T06:52:44.344Z,83.01
2017-10-26T06:53:51.213Z,83.03
2017-10-26T06:54:58.218Z,83.04
2017-10-26T06:56:05.239Z,83.08
2017-10-26T06:57:12.122Z,83.10
2017-10-26T06:58:19.082Z,83.06
2017-10-26T06:59:25.978Z,83.06
2017-10-26T07:00:32.843Z,83.12
2017-10-26T07:01:39.764Z,83.12
2017-10-26T07:02:46.606Z,83.14
2017-10-26T07:03:53.489Z,83.18
2017-10-26T07:05:00.374Z,83.19
2017-10-26T07:06:07.227Z,83.16
2017-10-26T07:07:14.074Z,83.18
2017-10-26T07:08:21.138Z,83.19
2017-10-26T07:09:28.032Z,83.19
2017-10-26T07:10:34.895Z,83.17
2017-10-26T07:11:41.766Z,83.14
2017-10-26T07:12:48.632Z,83.13
2017-10-26T07:13:55.514Z,83.16
2017-10-26T07:15:02.485Z,83.14
2017-10-26T07:16:09.326Z,83.09
2017-10-26T07:17:16.159Z,83.11
2017-10-26T07:18:22.996Z,83.10
2017-10-26T07:19:30.064Z,83.14
2017-10-26T07:20:36.905Z,83.14
2017-10-26T07:21:43.790Z,83.18
2017-10-26T07:22:50.626Z,83.20
2017-10-26T07:23:57.594Z,83.23
2017-10-26T07:25:04.544Z,83.28
2017-10-26T07:26:11.428Z,83.28
2017-10-26T07:27:18.641Z,83.26
2017-10-26T07:28:25.590Z,83.26
2017-10-26T07:29:32.376Z,83.27
2017-10-26T07:30:39.226Z,83.24
2017-10-26T07:31:46.081Z,83.27
2017-10-26T07:32:52.918Z,83.28
2017-10-26T07:33:59.781Z,83.31
2017-10-26T07:35:06.920Z,83.33
2017-10-26T07:36:13.345Z,83.33
2017-10-26T07:37:20.230Z,83.37
2017-10-26T07:38:27.106Z,83.38
2017-10-26T07:39:33.973Z,83.40
2017-10-26T07:40:40.894Z,83.46
2017-10-26T07:41:47.783Z,83.48
2017-10-26T07:42:54.814Z,83.51
2017-10-26T07:44:01.712Z,83.59
2017-10-26T07:45:08.579Z,83.63
2017-10-26T07:46:15.591Z,83.66
2017-10-26T07:47:22.458Z,83.70
2017-10-26T07:48:29.324Z,83.72
2017-10-26T07:49:36.201Z,83.78
2017-10-26T07:50:43.137Z,83.78
2017-10-26T07:51:49.989Z,83.76
2017-10-26T07:52:56.898Z,83.79
2017-10-26T07:54:03.760Z,83.80
2017-10-26T07:55:10.628Z,83.84
2017-10-26T07:56:17.597Z,83.84
2017-10-26T07:57:24.731Z,83.84
2017-10-26T07:58:31.566Z,83.88
2017-10-26T07:59:38.488Z,83.84
2017-10-26T08:00:45.479Z,83.85
2017-10-26T08:01:52.630Z,83.89
2017-10-26T08:02:59.947Z,83.89
2017-10-26T08:04:07.952Z,83.92
2017-10-26T08:05:13.179Z,83.95
2017-10-26T08:06:20.020Z,83.95
2017-10-26T08:07:26.853Z,83.98
2017-10-26T08:08:33.767Z,83.98
2017-10-26T08:09:40.769Z,83.99
2017-10-26T08:10:47.651Z,84.00
2017-10-26T08:11:54.493Z,84.04
2017-10-26T08:13:01.415Z,84.09
2017-10-26T08:14:08.316Z,84.09
2017-10-26T08:15:15.273Z,84.09
2017-10-26T08:16:22.094Z,84.08
2017-10-26T08:17:28.870Z,84.02
2017-10-26T08:18:35.685Z,84.03
2017-10-26T08:19:42.513Z,84.01
2017-10-26T08:20:49.383Z,83.99
2017-10-26T08:21:56.330Z,83.94
2017-10-26T08:23:03.331Z,83.95
2017-10-26T08:24:10.519Z,84.02
2017-10-26T08:25:17.433Z,84.09
2017-10-26T08:26:24.345Z,84.15
2017-10-26T08:27:31.246Z,84.16
2017-10-26T08:28:38.159Z,84.15
2017-10-26T08:29:45.049Z,84.15
2017-10-26T08:30:51.969Z,84.19
2017-10-26T08:31:58.856Z,84.21
2017-10-26T08:33:05.885Z,84.26
2017-10-26T08:34:12.801Z,84.26
2017-10-26T08:35:19.729Z,84.27
2017-10-26T08:36:26.580Z,84.29
2017-10-26T08:37:33.603Z,84.31
2017-10-26T08:38:40.514Z,84.35
2017-10-26T08:39:47.400Z,84.35
2017-10-26T08:40:54.437Z,84.35
2017-10-26T08:42:01.286Z,84.37
2017-10-26T08:43:08.157Z,84.33
2017-10-26T08:44:15.011Z,84.35
2017-10-26T08:45:21.849Z,84.35
2017-10-26T08:46:28.654Z,84.38
2017-10-26T08:47:35.547Z,84.37
2017-10-26T08:48:42.391Z,84.40
2017-10-26T08:49:49.286Z,84.44
2017-10-26T08:50:56.294Z,84.46
2017-10-26T08:52:03.241Z,84.49
2017-10-26T08:53:10.106Z,84.50
2017-10-26T08:54:16.959Z,84.44
2017-10-26T08:55:23.785Z,84.43
2017-10-26T08:56:30.670Z,84.50
2017-10-26T08:57:37.574Z,84.54
2017-10-26T08:58:44.581Z,84.52
2017-10-26T08:59:51.621Z,84.53
2017-10-26T09:00:58.571Z,84.58
2017-10-26T09:02:05.433Z,84.57
2017-10-26T09:03:12.329Z,84.57
2017-10-26T09:04:19.179Z,84.63
2017-10-26T09:05:26.065Z,84.63
2017-10-26T09:06:32.989Z,84.65
2017-10-26T09:07:39.945Z,84.69
2017-10-26T09:08:47.769Z,84.67
2017-10-26T09:09:53.653Z,84.64
2017-10-26T09:11:00.522Z,84.67
2017-10-26T09:12:07.471Z,84.67
2017-10-26T09:13:14.435Z,84.69
2017-10-26T09:14:21.291Z,84.71
2017-10-26T09:15:28.177Z,84.77
2017-10-26T09:16:35.078Z,84.83
2017-10-26T09:17:41.978Z,84.85
2017-10-26T09:18:48.949Z,84.88
2017-10-26T09:19:55.909Z,84.83
2017-10-26T09:21:02.802Z,84.87
2017-10-26T09:22:09.819Z,84.93
2017-10-26T09:23:16.835Z,84.91
2017-10-26T09:24:24.002Z,84.93
2017-10-26T09:25:30.877Z,84.97
2017-10-26T09:26:37.799Z,84.98
2017-10-26T09:27:44.726Z,85.00
2017-10-26T09:28:51.638Z,84.97
2017-10-26T09:29:58.569Z,84.95
2017-10-26T09:31:05.476Z,85.03
2017-10-26T09:32:12.377Z,85.03
2017-10-26T09:33:19.225Z,85.05
2017-10-26T09:34:26.137Z,85.06
2017-10-26T09:35:33.050Z,85.06
2017-10-26T09:36:40.261Z,85.09
2017-10-26T09:37:47.342Z,85.09
2017-10-26T09:38:54.265Z,85.07
2017-10-26T09:40:01.168Z,85.05
2017-10-26T09:41:08.042Z,85.05
2017-10-26T09:42:15.006Z,85.10
2017-10-26T09:43:21.878Z,85.08
2017-10-26T09:44:29.122Z,85.02
2017-10-26T09:45:35.936Z,84.99
2017-10-26T09:46:42.869Z,85.07
2017-10-26T09:47:49.937Z,85.01
2017-10-26T09:48:56.789Z,85.00
2017-10-26T09:50:03.689Z,84.98
2017-10-26T09:51:10.541Z,84.97
2017-10-26T09:52:17.290Z,84.99
2017-10-26T09:53:24.210Z,85.00
2017-10-26T09:54:31.126Z,85.08
2017-10-26T09:55:38.201Z,85.13
2017-10-26T09:56:45.166Z,85.06
2017-10-26T09:57:52.131Z,85.02
2017-10-26T09:58:58.966Z,84.97
2017-10-26T10:00:05.878Z,85.00
2017-10-26T10:01:12.745Z,85.00
2017-10-26T10:02:19.553Z,85.07
2017-10-26T10:03:26.689Z,85.01
2017-10-26T10:04:33.096Z,84.97
2017-10-26T10:05:40.001Z,84.95
2017-10-26T10:06:46.926Z,84.95
2017-10-26T10:07:53.770Z,84.94
2017-10-26T10:09:00.599Z,84.91
2017-10-26T10:10:07.663Z,84.97
2017-10-26T10:11:14.549Z,85.07
2017-10-26T10:12:21.488Z,85.10
2017-10-26T10:13:28.413Z,85.11
2017-10-26T10:14:35.569Z,85.15
2017-10-26T10:15:42.374Z,85.18
2017-10-26T10:16:49.251Z,85.21
2017-10-26T10:17:56.138Z,85.15
2017-10-26T10:19:03.039Z,85.16
2017-10-26T10:20:10.186Z,85.19
2017-10-26T10:21:16.661Z,85.12
2017-10-26T10:22:23.561Z,85.10
2017-10-26T10:23:30.423Z,85.16
2017-10-26T10:24:37.258Z,85.20
2017-10-26T10:25:44.158Z,85.23
2017-10-26T10:26:50.989Z,85.17
2017-10-26T10:27:57.890Z,85.21
2017-10-26T10:29:04.697Z,85.21
2017-10-26T10:30:11.595Z,85.22
2017-10-26T10:31:18.663Z,85.26
2017-10-26T10:32:25.622Z,85.21
2017-10-26T10:33:32.601Z,85.24
2017-10-26T10:34:39.658Z,85.16
2017-10-26T10:35:46.601Z,85.08
2017-10-26T10:36:53.513Z,85.11
2017-10-26T10:38:00.418Z,85.04
2017-10-26T10:39:07.330Z,85.03
2017-10-26T10:40:14.159Z,85.04
2017-10-26T10:41:21.077Z,85.05
2017-10-26T10:42:27.987Z,84.99
2017-10-26T10:43:34.881Z,85.10
2017-10-26T10:44:41.761Z,85.08
2017-10-26T10:45:48.630Z,85.01
2017-10-26T10:46:55.494Z,85.05
2017-10-26T10:48:02.405Z,85.04
2017-10-26T10:49:09.396Z,85.02
2017-10-26T10:50:16.272Z,84.99
2017-10-26T10:51:23.186Z,85.03
2017-10-26T10:52:30.071Z,85.03
2017-10-26T10:53:36.966Z,85.05
2017-10-26T10:54:43.837Z,85.11
2017-10-26T10:55:50.764Z,85.16
2017-10-26T10:56:57.617Z,85.00
2017-10-26T10:58:04.556Z,84.96
2017-10-26T10:59:11.456Z,85.01
2017-10-26T11:00:18.403Z,84.98
2017-10-26T11:01:25.349Z,84.85
2017-10-26T11:02:32.041Z,84.92
2017-10-26T11:03:38.945Z,84.99
2017-10-26T11:04:45.830Z,84.99
2017-10-26T11:05:52.700Z,84.94
2017-10-26T11:06:59.630Z,84.84
2017-10-26T11:08:06.537Z,84.82
2017-10-26T11:09:13.473Z,84.77
2017-10-26T11:10:20.326Z,84.76
2017-10-26T11:11:27.253Z,84.76
2017-10-26T11:12:34.190Z,84.80
2017-10-26T11:13:41.104Z,84.69
2017-10-26T11:14:48.014Z,84.58
2017-10-26T11:15:54.914Z,84.56
2017-10-26T11:17:01.758Z,84.51
2017-10-26T11:18:08.652Z,84.53
2017-10-26T11:19:15.587Z,84.46
2017-10-26T11:20:22.454Z,84.30
2017-10-26T11:21:29.392Z,84.41
2017-10-26T11:22:36.318Z,84.41
2017-10-26T11:23:43.299Z,84.41
2017-10-26T11:24:50.194Z,84.44
2017-10-26T11:25:57.099Z,84.46
2017-10-26T11:27:03.966Z,84.41
2017-10-26T11:28:10.677Z,84.43
2017-10-26T11:29:17.856Z,84.45
2017-10-26T11:30:24.667Z,84.47
2017-10-26T11:31:31.748Z,84.36
2017-10-26T11:32:38.753Z,84.42
2017-10-26T11:33:45.699Z,84.37
2017-10-26T11:34:52.568Z,84.39
2017-10-26T11:35:59.502Z,84.24
2017-10-26T11:37:06.425Z,84.23
2017-10-26T11:38:13.293Z,84.17
2017-10-26T11:39:20.142Z,84.30
2017-10-26T11:40:27.038Z,84.40
2017-10-26T11:41:33.917Z,84.38
2017-10-26T11:42:41.041Z,84.28
2017-10-26T11:43:47.905Z,84.32
2017-10-26T11:44:54.785Z,84.39
2017-10-26T11:46:01.629Z,84.35
2017-10-26T11:47:08.562Z,84.34
2017-10-26T11:48:15.427Z,84.26
2017-10-26T11:49:22.319Z,84.15
2017-10-26T11:50:29.187Z,84.05
2017-10-26T11:51:36.311Z,83.94
2017-10-26T11:52:43.217Z,83.87
2017-10-26T11:53:50.198Z,83.84
2017-10-26T11:54:57.086Z,83.79
2017-10-26T11:56:04.011Z,83.86
2017-10-26T11:57:10.977Z,83.88
2017-10-26T11:58:17.790Z,83.79
2017-10-26T11:59:24.945Z,83.79
2017-10-26T12:00:31.834Z,83.75
2017-10-26T12:01:38.833Z,83.72
2017-10-26T12:02:45.700Z,83.72
2017-10-26T12:03:52.662Z,83.66
2017-10-26T12:04:59.558Z,83.66
2017-10-26T12:06:06.408Z,83.65
2017-10-26T12:07:13.375Z,83.65
2017-10-26T12:08:20.234Z,83.73
2017-10-26T12:09:27.156Z,83.66
2017-10-26T12:10:33.979Z,83.58
2017-10-26T12:11:40.871Z,83.42
2017-10-26T12:12:47.729Z,83.38
2017-10-26T12:13:54.629Z,83.45
2017-10-26T12:15:01.552Z,83.37
2017-10-26T12:16:08.490Z,83.37
2017-10-26T12:17:15.353Z,83.44
2017-10-26T12:18:22.202Z,83.44
2017-10-26T12:19:29.254Z,83.46
2017-10-26T12:20:36.195Z,83.39
2017-10-26T12:21:43.060Z,83.33
2017-10-26T12:22:49.866Z,83.13
2017-10-26T12:23:56.763Z,83.00
2017-10-26T12:25:03.681Z,82.98
2017-10-26T12:26:10.579Z,83.00
2017-10-26T12:27:17.416Z,83.05
2017-10-26T12:28:24.313Z,83.11
2017-10-26T12:29:31.260Z,83.09
2017-10-26T12:30:38.167Z,83.14
2017-10-26T12:31:45.142Z,83.09
2017-10-26T12:32:51.961Z,83.02
2017-10-26T12:33:58.858Z,83.04
2017-10-26T12:35:05.959Z,82.99
2017-10-26T12:36:12.952Z,82.98
2017-10-26T12:37:19.911Z,83.02
2017-10-26T12:38:26.803Z,83.04
2017-10-26T12:39:33.765Z,83.10
2017-10-26T12:40:40.749Z,83.04
2017-10-26T12:41:47.557Z,82.90
2017-10-26T12:42:54.454Z,82.84
2017-10-26T12:44:01.526Z,82.82
2017-10-26T12:45:08.421Z,82.86
2017-10-26T12:46:15.269Z,82.78
2017-10-26T12:47:22.430Z,82.79
2017-10-26T12:48:29.270Z,82.76
2017-10-26T12:49:36.146Z,82.77
2017-10-26T12:50:43.015Z,82.81
2017-10-26T12:51:50.046Z,82.75
2017-10-26T12:52:56.910Z,82.70
2017-10-26T12:54:03.825Z,82.66
2017-10-26T12:55:10.720Z,82.56
2017-10-26T12:56:17.582Z,82.55
2017-10-26T12:57:24.473Z,82.56
2017-10-26T12:58:31.420Z,82.52
2017-10-26T12:59:38.296Z,82.49
2017-10-26T13:00:45.206Z,82.48
2017-10-26T13:01:52.051Z,82.48
2017-10-26T13:02:58.892Z,82.46
2017-10-26T13:04:05.786Z,82.44
2017-10-26T13:05:12.742Z,82.35
2017-10-26T13:06:20.009Z,82.32
2017-10-26T13:07:26.390Z,82.29
2017-10-26T13:08:33.454Z,82.29
2017-10-26T13:09:40.253Z,82.23
2017-10-26T13:10:47.171Z,82.18
2017-10-26T13:11:54.061Z,82.31
2017-10-26T13:13:00.877Z,82.41
2017-10-26T13:14:07.808Z,82.31
2017-10-26T13:15:14.697Z,82.28
2017-10-26T13:16:21.622Z,82.26
2017-10-26T13:17:28.542Z,82.34
2017-10-26T13:18:35.467Z,82.31
2017-10-26T13:19:42.335Z,82.35
2017-10-26T13:20:49.236Z,82.26
2017-10-26T13:21:56.158Z,82.28
2017-10-26T13:23:03.005Z,82.26
2017-10-26T13:24:09.820Z,82.21
2017-10-26T13:25:16.664Z,82.21
2017-10-26T13:26:23.529Z,82.17
2017-10-26T13:27:30.482Z,82.22
2017-10-26T13:28:37.303Z,82.24
2017-10-26T13:29:44.116Z,82.28
2017-10-26T13:30:50.982Z,82.25
2017-10-26T13:31:57.799Z,82.26
2017-10-26T13:33:04.726Z,82.20
2017-10-26T13:34:11.564Z,82.20
2017-10-26T13:35:18.474Z,82.31
2017-10-26T13:36:25.285Z,82.33
2017-10-26T13:37:32.110Z,82.25
2017-10-26T13:38:38.909Z,82.33
2017-10-26T13:39:46.152Z,82.32
2017-10-26T13:40:52.484Z,82.31
2017-10-26T13:41:59.268Z,82.30
2017-10-26T13:43:06.061Z,82.27
2017-10-26T13:44:12.962Z,82.25
2017-10-26T13:45:19.778Z,82.28
2017-10-26T13:46:26.700Z,82.36
2017-10-26T13:47:33.535Z,82.45
2017-10-26T13:48:40.419Z,82.40
2017-10-26T13:49:47.320Z,82.45
2017-10-26T13:50:54.534Z,82.35
2017-10-26T13:52:00.880Z,82.35
2017-10-26T13:53:07.770Z,82.39
2017-10-26T13:54:14.581Z,82.42
2017-10-26T13:55:21.385Z,82.46
2017-10-26T13:56:28.285Z,82.41
2017-10-26T13:57:35.392Z,82.38
2017-10-26T13:58:41.694Z,82.35
2017-10-26T13:59:48.485Z,82.39
2017-10-26T14:00:55.275Z,82.55
2017-10-26T14:02:02.142Z,82.60
2017-10-26T14:03:08.977Z,82.55
2017-10-26T14:04:15.837Z,82.50
2017-10-26T14:05:22.581Z,82.65
2017-10-26T14:06:29.357Z,82.83
2017-10-26T14:07:36.174Z,82.94
2017-10-26T14:08:42.934Z,83.00
2017-10-26T14:09:49.721Z,82.94
2017-10-26T14:10:56.528Z,82.94
2017-10-26T14:12:03.353Z,83.01
2017-10-26T14:13:10.117Z,83.09
2017-10-26T14:14:16.894Z,83.13
2017-10-26T14:15:23.683Z,83.20
2017-10-26T14:16:30.585Z,83.28
2017-10-26T14:17:37.382Z,83.43
2017-10-26T14:18:44.195Z,83.43
2017-10-26T14:19:50.982Z,83.38
2017-10-26T14:20:57.786Z,83.36
2017-10-26T14:22:04.562Z,83.37